Time;durP1;ratioP1;P1;durP2;ratioP2;P2;SDS_P1;SDS_P2;PMS_P1;PMS_P2;Temp;Humidity;BMP_temperature;BMP_pressure;BME280_temperature;BME280_humidity;BME280_pressure;Samples;Min_cycle;Max_cycle;Signal;HPM_P1;HPM_P2
2021/07/07 00:00:51;;;;;;;6.43;3.88;;;;;;;23.83;59.00;99839.16;4914518;28;101834;-84
2021/07/07 00:03:17;;;;;;;6.65;3.67;;;;;;;23.88;58.80;99856.47;4917229;28;96819;-84
2021/07/07 00:05:42;;;;;;;8.23;3.90;;;;;;;23.88;59.07;99843.06;4913799;28;97005;-83
2021/07/07 00:08:08;;;;;;;5.18;3.17;;;;;;;23.83;58.79;99831.09;4882240;28;101666;-84
2021/07/07 00:10:34;;;;;;;6.70;3.45;;;;;;;23.78;59.18;99841.41;4896872;28;100116;-84
2021/07/07 00:13:02;;;;;;;5.97;3.70;;;;;;;23.81;59.51;99844.63;4914150;28;97190;-85
2021/07/07 00:15:31;;;;;;;6.22;3.60;;;;;;;23.67;59.71;99837.88;4919264;28;96930;-85
2021/07/07 00:18:02;;;;;;;11.50;3.70;;;;;;;23.60;59.95;99835.97;4898009;28;101893;-84
2021/07/07 00:20:36;;;;;;;6.60;4.05;;;;;;;23.51;60.22;99824.31;4899963;28;99990;-84
2021/07/07 00:23:02;;;;;;;6.35;3.53;;;;;;;23.48;60.24;99838.84;4916629;28;97118;-84
2021/07/07 00:25:28;;;;;;;6.65;3.55;;;;;;;23.54;59.90;99850.78;4897793;28;97003;-85
2021/07/07 00:27:54;;;;;;;5.28;3.45;;;;;;;23.58;58.96;99837.94;4913776;28;98033;-84
2021/07/07 00:30:19;;;;;;;9.30;3.38;;;;;;;23.67;58.83;99859.31;4897284;28;101296;-85
2021/07/07 00:32:45;;;;;;;5.90;3.65;;;;;;;23.55;59.14;99852.47;4897318;28;96965;-84
2021/07/07 00:35:11;;;;;;;6.97;3.65;;;;;;;23.43;58.74;99821.50;4898098;28;97003;-84
2021/07/07 00:37:37;;;;;;;6.30;3.88;;;;;;;23.71;58.81;99871.47;4909372;28;101973;-84
2021/07/07 00:40:04;;;;;;;7.38;3.47;;;;;;;23.46;59.09;99854.19;4894173;28;101549;-85
2021/07/07 00:42:30;;;;;;;11.90;3.78;;;;;;;23.40;59.48;99873.53;4890203;28;96769;-85
2021/07/07 00:44:55;;;;;;;6.22;4.05;;;;;;;23.50;59.31;99858.28;4916297;28;97153;-85
2021/07/07 00:47:21;;;;;;;9.48;3.45;;;;;;;23.56;59.16;99867.56;4892461;28;101161;-84
2021/07/07 00:49:46;;;;;;;10.90;3.22;;;;;;;23.35;59.34;99854.38;4917228;28;98534;-85
2021/07/07 00:52:12;;;;;;;5.43;3.00;;;;;;;23.38;59.32;99851.41;4920403;28;96784;-84
2021/07/07 00:54:38;;;;;;;4.72;3.28;;;;;;;23.47;59.32;99857.72;4917303;28;96699;-85
2021/07/07 00:57:04;;;;;;;4.18;2.80;;;;;;;23.46;59.51;99867.59;4900923;28;101866;-85
2021/07/07 00:59:31;;;;;;;7.10;3.67;;;;;;;23.44;59.47;99858.84;4884070;28;101475;-85
2021/07/07 01:01:57;;;;;;;8.85;3.00;;;;;;;23.47;59.70;99865.75;4919465;28;96766;-84
2021/07/07 01:04:23;;;;;;;8.50;3.72;;;;;;;23.25;60.08;99859.75;4901275;28;96907;-85
2021/07/07 01:06:48;;;;;;;5.28;3.03;;;;;;;23.22;60.16;99860.06;4892638;28;101383;-85
2021/07/07 01:09:14;;;;;;;8.95;3.03;;;;;;;23.25;60.36;99865.13;4931478;28;101609;-85
2021/07/07 01:11:40;;;;;;;8.32;3.65;;;;;;;23.19;60.25;99870.22;4907842;28;97369;-85
2021/07/07 01:14:05;;;;;;;7.45;3.88;;;;;;;23.24;60.40;99868.78;4918985;28;96962;-85
2021/07/07 01:16:31;;;;;;;4.50;2.85;;;;;;;23.13;60.56;99868.13;4919112;28;98100;-85
2021/07/07 01:18:57;;;;;;;5.53;3.45;;;;;;;23.03;60.69;99879.66;4902529;28;101712;-85
2021/07/07 01:21:23;;;;;;;8.18;3.33;;;;;;;23.06;60.81;99873.19;4907743;28;97117;-84
2021/07/07 01:23:50;;;;;;;9.27;3.78;;;;;;;23.34;59.92;99884.00;4934257;28;97357;-85
2021/07/07 01:26:15;;;;;;;7.30;3.45;;;;;;;23.03;60.53;99874.31;4900430;28;101783;-84
2021/07/07 01:28:41;;;;;;;4.85;3.38;;;;;;;23.11;60.54;99880.78;4886497;28;101511;-85
2021/07/07 01:31:07;;;;;;;4.85;3.30;;;;;;;23.14;60.61;99889.38;4884805;28;97247;-85
2021/07/07 01:33:33;;;;;;;6.22;3.42;;;;;;;23.00;61.32;99895.16;4917273;28;97360;-85
2021/07/07 01:35:59;;;;;;;5.82;3.60;;;;;;;22.94;61.25;99888.50;4911247;28;99854;-85
2021/07/07 01:38:25;;;;;;;6.10;3.20;;;;;;;22.76;61.53;99875.00;4902930;28;101771;-85
2021/07/07 01:40:51;;;;;;;6.18;4.32;;;;;;;22.95;61.55;99884.91;4915905;28;96646;-85
2021/07/07 01:43:16;;;;;;;8.80;3.35;;;;;;;22.94;61.41;99883.16;4935560;28;97003;-85
2021/07/07 01:45:42;;;;;;;7.10;3.30;;;;;;;22.83;61.82;99880.63;4898856;28;101906;-84
2021/07/07 01:48:07;;;;;;;7.07;3.60;;;;;;;22.82;61.59;99878.94;4899606;28;101519;-85
2021/07/07 01:50:33;;;;;;;4.50;3.30;;;;;;;22.71;61.62;99855.84;4924449;28;96961;-84
2021/07/07 01:52:58;;;;;;;4.65;3.15;;;;;;;22.58;61.95;99847.28;4918426;28;96824;-84
2021/07/07 01:55:27;;;;;;;7.25;2.90;;;;;;;22.49;62.34;99840.94;4884503;28;101667;-84
2021/07/07 01:57:53;;;;;;;7.28;3.45;;;;;;;22.71;62.10;99876.41;4912058;28;101692;-85
2021/07/07 02:00:28;;;;;;;5.95;3.25;;;;;;;22.79;61.89;99882.75;4910974;28;96838;-84
2021/07/07 02:02:55;;;;;;;6.07;3.30;;;;;;;22.65;62.23;99893.03;4902210;28;96991;-85
2021/07/07 02:05:28;;;;;;;7.38;3.03;;;;;;;22.68;62.22;99893.59;4905651;28;100210;-84
2021/07/07 02:07:54;;;;;;;6.15;3.50;;;;;;;22.72;62.14;99900.38;4897379;28;101723;-85
2021/07/07 02:10:19;;;;;;;4.57;3.00;;;;;;;22.72;61.79;99891.47;4898898;28;97492;-85
2021/07/07 02:12:45;;;;;;;5.28;3.38;;;;;;;22.75;61.85;99896.56;4918827;28;97211;-85
2021/07/07 02:15:16;;;;;;;6.30;3.42;;;;;;;22.78;61.91;99893.59;4906045;28;100050;-85
2021/07/07 02:17:42;;;;;;;7.50;3.78;;;;;;;22.64;62.22;99888.66;4909890;28;100426;-84
2021/07/07 02:20:10;;;;;;;10.20;3.38;;;;;;;22.64;62.05;99908.25;4897801;28;97016;-84
2021/07/07 02:22:36;;;;;;;9.95;3.35;;;;;;;22.72;62.02;99912.88;4934285;28;97359;-85
2021/07/07 02:25:05;;;;;;;7.50;3.50;;;;;;;22.57;62.55;99913.31;4901036;28;101570;-85
2021/07/07 02:27:31;;;;;;;8.10;3.55;;;;;;;22.50;62.67;99908.63;4915399;28;98336;-85
2021/07/07 02:29:56;;;;;;;5.78;3.72;;;;;;;22.58;62.56;99933.72;4913623;28;97140;-85
2021/07/07 02:32:22;;;;;;;4.80;3.17;;;;;;;22.55;62.72;99927.78;4908883;28;96785;-84
2021/07/07 02:34:48;;;;;;;4.38;3.50;;;;;;;22.57;62.63;99921.34;4898144;28;98180;-83
2021/07/07 02:37:13;;;;;;;7.30;3.60;;;;;;;22.62;62.26;99920.06;4924308;28;98384;-85
2021/07/07 02:39:39;;;;;;;6.00;3.53;;;;;;;22.65;62.17;99928.63;4918450;28;96763;-85
2021/07/07 02:42:04;;;;;;;5.78;3.00;;;;;;;22.59;62.30;99935.38;4906716;28;96891;-85
2021/07/07 02:44:31;;;;;;;7.60;3.63;;;;;;;22.58;62.56;99939.06;4902616;28;101680;-86
2021/07/07 02:46:56;;;;;;;4.70;3.25;;;;;;;22.65;62.25;99941.19;4914574;28;101041;-85
2021/07/07 02:49:22;;;;;;;9.10;3.47;;;;;;;22.67;62.07;99949.91;4896015;28;96811;-85
2021/07/07 02:51:48;;;;;;;5.20;3.25;;;;;;;22.77;61.73;99959.63;4915318;28;97295;-84
2021/07/07 02:54:13;;;;;;;5.32;3.13;;;;;;;22.78;61.87;99976.53;4899743;28;100822;-84
2021/07/07 02:56:39;;;;;;;6.20;3.50;;;;;;;22.65;61.92;99968.75;4902124;28;101126;-85
2021/07/07 02:59:04;;;;;;;6.07;3.67;;;;;;;22.73;61.90;99968.09;4915247;28;96980;-85
2021/07/07 03:01:30;;;;;;;7.10;3.78;;;;;;;22.78;61.80;99965.84;4906223;28;97058;-84
2021/07/07 03:03:55;;;;;;;9.55;4.00;;;;;;;22.71;62.09;99973.56;4895614;28;101786;-85
2021/07/07 03:06:21;;;;;;;7.28;4.22;;;;;;;22.69;62.02;99974.69;4906136;28;97986;-84
2021/07/07 03:08:47;;;;;;;8.35;3.90;;;;;;;22.61;62.40;99964.69;4930843;28;97007;-84
2021/07/07 03:11:12;;;;;;;11.27;4.55;;;;;;;22.66;61.99;99967.81;4918369;28;97012;-85
2021/07/07 03:13:38;;;;;;;6.93;3.80;;;;;;;22.69;62.43;99980.03;4903983;28;101551;-84
2021/07/07 03:16:04;;;;;;;10.82;3.70;;;;;;;22.77;62.19;99981.03;4931299;28;101864;-85
2021/07/07 03:18:29;;;;;;;9.30;4.05;;;;;;;22.59;62.11;99969.31;4917623;28;97188;-85
2021/07/07 03:20:55;;;;;;;11.77;4.65;;;;;;;22.70;62.23;99984.41;4901986;28;97285;-85
2021/07/07 03:23:23;;;;;;;9.13;3.80;;;;;;;22.73;61.92;99984.97;4905204;28;101164;-85
2021/07/07 03:25:49;;;;;;;6.53;3.60;;;;;;;22.72;61.78;99987.78;4933668;28;98303;-85
2021/07/07 03:28:16;;;;;;;9.88;4.30;;;;;;;22.76;61.80;99995.41;4918759;28;97070;-85
2021/07/07 03:30:42;;;;;;;10.30;4.07;;;;;;;22.77;61.67;99986.38;4887642;28;96894;-85
2021/07/07 03:33:07;;;;;;;6.40;3.40;;;;;;;22.68;61.81;99981.88;4929374;28;101415;-85
2021/07/07 03:35:33;;;;;;;13.77;4.20;;;;;;;22.74;61.74;99983.97;4914237;28;97659;-85
2021/07/07 03:37:59;;;;;;;9.38;4.20;;;;;;;22.71;61.65;99976.22;4896306;28;96811;-85
2021/07/07 03:40:27;;;;;;;6.20;3.92;;;;;;;22.83;61.71;99993.88;4914078;28;97378;-85
2021/07/07 03:42:52;;;;;;;8.25;4.00;;;;;;;22.87;61.58;99999.78;4897505;28;100114;-85
2021/07/07 03:45:19;;;;;;;8.82;3.80;;;;;;;22.93;61.39;100006.41;4914544;28;97057;-86
2021/07/07 03:47:45;;;;;;;10.13;3.97;;;;;;;22.90;61.63;100004.88;4913884;28;97399;-85
2021/07/07 03:50:10;;;;;;;8.63;3.80;;;;;;;22.99;61.47;100014.75;4925260;28;96903;-85
2021/07/07 03:52:37;;;;;;;5.60;3.83;;;;;;;22.93;61.46;99995.72;4911000;28;98210;-84
2021/07/07 03:55:11;;;;;;;9.93;3.83;;;;;;;22.78;61.98;99992.59;4924033;28;101204;-85
2021/07/07 03:57:36;;;;;;;9.68;4.03;;;;;;;22.88;62.00;100009.50;4898236;28;96997;-85
2021/07/07 04:00:07;;;;;;;8.88;3.80;;;;;;;22.93;61.70;100017.13;4898408;28;96746;-85
2021/07/07 04:02:37;;;;;;;8.70;4.07;;;;;;;23.03;61.29;100024.19;4914752;28;97923;-85
2021/07/07 04:05:04;;;;;;;9.63;3.88;;;;;;;23.10;61.29;100015.63;4933199;28;98585;-85
2021/07/07 04:07:29;;;;;;;10.90;4.15;;;;;;;23.23;61.01;100030.41;4911928;28;97399;-85
2021/07/07 04:09:55;;;;;;;7.90;3.28;;;;;;;23.30;60.94;100035.19;4893455;28;97156;-84
2021/07/07 04:12:21;;;;;;;6.88;3.53;;;;;;;23.37;60.66;100025.63;4898455;28;100022;-85
2021/07/07 04:14:46;;;;;;;10.88;3.90;;;;;;;23.55;60.38;100034.63;4889605;28;101341;-85
2021/07/07 04:17:12;;;;;;;11.23;3.10;;;;;;;23.56;60.03;100038.13;4884276;28;97234;-85
2021/07/07 04:19:37;;;;;;;9.48;3.30;;;;;;;23.57;59.86;100034.50;4898822;28;96931;-85
2021/07/07 04:22:03;;;;;;;8.40;3.47;;;;;;;23.69;59.56;100044.06;4896466;28;101427;-85
2021/07/07 04:24:29;;;;;;;17.00;3.67;;;;;;;23.66;59.53;100033.63;4897745;28;97621;-85
2021/07/07 04:26:54;;;;;;;8.48;3.00;;;;;;;23.68;59.54;100059.31;4911958;28;97001;-85
2021/07/07 04:29:20;;;;;;;13.05;6.82;;;;;;;23.68;59.61;100048.59;4909233;28;96968;-85
2021/07/07 04:31:45;;;;;;;6.45;4.50;;;;;;;23.71;59.36;100051.00;4912443;28;100012;-84
2021/07/07 04:34:11;;;;;;;6.00;3.53;;;;;;;23.65;59.56;100058.72;4889775;28;101646;-85
2021/07/07 04:36:37;;;;;;;9.50;3.42;;;;;;;23.79;59.40;100054.78;4918427;28;96787;-85
2021/07/07 04:39:07;;;;;;;6.95;3.00;;;;;;;23.80;59.20;100054.66;4933447;28;96863;-85
2021/07/07 04:41:33;;;;;;;4.65;2.72;;;;;;;23.94;58.89;100056.06;4913850;28;101511;-85
2021/07/07 04:43:58;;;;;;;6.82;3.15;;;;;;;24.14;58.50;100055.00;4897885;28;98169;-85
2021/07/07 04:46:24;;;;;;;8.25;3.13;;;;;;;24.29;58.15;100062.56;4932250;28;96793;-86
2021/07/07 04:48:50;;;;;;;9.20;3.10;;;;;;;24.27;57.70;100024.31;4913663;28;97073;-85
2021/07/07 04:51:16;;;;;;;8.50;3.30;;;;;;;24.58;57.61;100074.06;4926695;28;101488;-85
2021/07/07 04:53:41;;;;;;;7.22;2.60;;;;;;;24.86;56.97;100066.00;4905428;28;99997;-85
2021/07/07 04:56:07;;;;;;;10.65;3.15;;;;;;;24.76;56.84;100020.44;4896746;28;97085;-85
2021/07/07 04:58:34;;;;;;;8.52;3.05;;;;;;;25.08;56.23;100054.00;4881965;28;96869;-86
2021/07/07 05:01:00;;;;;;;8.45;3.00;;;;;;;25.34;55.60;100072.03;4895984;28;101885;-85
2021/07/07 05:03:25;;;;;;;8.60;2.63;;;;;;;25.48;55.58;100058.94;4897948;28;100398;-85
2021/07/07 05:05:51;;;;;;;12.05;2.83;;;;;;;25.43;55.31;100063.94;4899606;28;97358;-86
2021/07/07 05:08:16;;;;;;;5.40;2.60;;;;;;;25.56;55.74;100060.84;4917364;28;97013;-84
2021/07/07 05:10:43;;;;;;;11.30;2.92;;;;;;;25.75;54.81;100055.28;4897074;28;100880;-85
2021/07/07 05:13:09;;;;;;;6.05;2.38;;;;;;;25.93;54.53;100049.91;4925879;28;97701;-86
2021/07/07 05:15:35;;;;;;;3.05;2.25;;;;;;;26.03;54.19;100051.63;4901825;28;97306;-86
2021/07/07 05:18:00;;;;;;;6.80;2.55;;;;;;;25.99;54.33;100059.19;4913479;28;97416;-86
2021/07/07 05:20:26;;;;;;;6.50;2.45;;;;;;;26.03;54.17;100057.84;4915545;28;102054;-86
2021/07/07 05:22:52;;;;;;;7.28;2.10;;;;;;;26.39;53.61;100060.44;4921106;28;101063;-86
2021/07/07 05:25:19;;;;;;;5.65;3.00;;;;;;;26.65;53.04;100063.09;4915276;28;96749;-86
2021/07/07 05:27:46;;;;;;;4.63;2.83;;;;;;;26.90;52.39;100069.38;4897685;28;97231;-86
2021/07/07 05:30:13;;;;;;;4.97;2.17;;;;;;;27.19;51.90;100079.75;4899156;28;101562;-87
2021/07/07 05:32:39;;;;;;;4.57;2.30;;;;;;;27.42;51.74;100073.75;4909937;28;101735;-85
2021/07/07 05:35:06;;;;;;;3.92;2.22;;;;;;;27.66;50.86;100056.72;4897212;28;97056;-87
2021/07/07 05:37:32;;;;;;;4.93;2.10;;;;;;;27.85;50.07;100067.19;4909300;28;97610;-85
2021/07/07 05:39:58;;;;;;;5.07;2.10;;;;;;;28.23;49.37;100080.97;4885269;28;101367;-84
2021/07/07 05:42:23;;;;;;;8.88;2.08;;;;;;;28.15;49.08;100081.81;4913824;28;101052;-85
2021/07/07 05:44:51;;;;;;;7.40;2.72;;;;;;;28.19;49.15;100082.31;4912556;28;97060;-84
2021/07/07 05:47:17;;;;;;;3.15;1.80;;;;;;;27.98;49.50;100090.94;4900283;28;96997;-84
2021/07/07 05:49:43;;;;;;;2.88;1.95;;;;;;;27.87;49.33;100088.63;4899285;28;101192;-86
2021/07/07 05:52:09;;;;;;;3.47;1.65;;;;;;;27.80;48.89;100103.78;4901234;28;97902;-85
2021/07/07 05:54:35;;;;;;;2.03;1.80;;;;;;;27.66;49.05;100095.31;4915309;28;97277;-84
2021/07/07 05:57:01;;;;;;;8.50;2.40;;;;;;;28.37;48.12;100068.63;4925341;28;96797;-85
2021/07/07 05:59:26;;;;;;;8.60;2.30;;;;;;;29.43;46.13;100078.91;4916386;28;101727;-85
2021/07/07 06:01:52;;;;;;;7.07;2.05;;;;;;;30.59;43.73;100093.06;4910432;28;100305;-86
2021/07/07 06:04:18;;;;;;;2.42;1.73;;;;;;;31.53;41.77;100101.28;4901291;28;97132;-86
2021/07/07 06:06:43;;;;;;;3.88;2.13;;;;;;;32.26;40.53;100088.34;4917694;28;97029;-88
2021/07/07 06:09:09;;;;;;;2.65;1.92;;;;;;;33.17;39.12;100090.06;4913806;28;100196;-87
2021/07/07 06:11:34;;;;;;;2.20;1.70;;;;;;;33.00;38.62;100095.88;4917630;28;100952;-84
2021/07/07 06:14:00;;;;;;;3.42;1.60;;;;;;;31.24;41.08;100086.81;4899756;28;97373;-87
2021/07/07 06:16:25;;;;;;;4.82;1.55;;;;;;;30.48;42.40;100072.69;4913701;28;97203;-86
2021/07/07 06:18:51;;;;;;;7.72;2.28;;;;;;;31.74;40.64;100074.16;4906313;28;100974;-87
2021/07/07 06:21:17;;;;;;;3.47;1.85;;;;;;;33.73;38.06;100068.81;4917858;28;101434;-86
2021/07/07 06:23:43;;;;;;;3.35;1.52;;;;;;;34.80;35.60;100077.66;4900312;28;96744;-88
2021/07/07 06:26:09;;;;;;;5.65;2.40;;;;;;;35.30;34.57;100074.25;4885584;28;96964;-87
2021/07/07 06:28:35;;;;;;;2.45;1.65;;;;;;;35.86;33.71;100073.41;4913913;28;100923;-86
2021/07/07 06:31:01;;;;;;;8.27;2.17;;;;;;;36.38;33.36;100070.41;4908340;28;98038;-88
2021/07/07 06:33:26;;;;;;;4.10;1.70;;;;;;;37.05;31.37;100059.53;4900504;28;96761;-87
2021/07/07 06:35:52;;;;;;;3.00;1.70;;;;;;;37.41;30.92;100071.41;4914753;28;97262;-87
2021/07/07 06:38:18;;;;;;;7.47;1.95;;;;;;;37.77;30.51;100068.53;4915341;28;100009;-88
2021/07/07 06:40:43;;;;;;;5.70;2.10;;;;;;;38.12;30.36;100072.38;4908306;28;98371;-87
2021/07/07 06:43:09;;;;;;;4.10;1.60;;;;;;;37.70;30.71;100062.34;4919320;28;96898;-88
2021/07/07 06:45:38;;;;;;;3.20;1.70;;;;;;;38.21;30.20;100051.75;4904335;28;96907;-87
2021/07/07 06:48:06;;;;;;;4.03;1.83;;;;;;;38.16;29.81;100041.50;4907087;28;100862;-87
2021/07/07 06:50:31;;;;;;;2.90;1.70;;;;;;;38.76;29.66;100067.72;4920988;28;98461;-87
2021/07/07 06:52:57;;;;;;;3.40;1.40;;;;;;;38.96;29.20;100059.09;4896895;28;99449;-87
2021/07/07 06:55:23;;;;;;;5.30;1.30;;;;;;;39.27;27.85;100073.38;4915666;28;96864;-85
2021/07/07 06:57:49;;;;;;;4.00;1.50;;;;;;;39.60;27.72;100058.88;4893139;28;101424;-86
2021/07/07 07:00:16;;;;;;;4.45;1.50;;;;;;;38.88;28.30;100084.19;4898245;28;101238;-87
2021/07/07 07:02:42;;;;;;;3.38;1.33;;;;;;;39.17;28.08;100079.50;4899789;28;97075;-86
2021/07/07 07:05:10;;;;;;;2.03;1.55;;;;;;;39.94;26.72;100078.94;4949348;28;96865;-86
2021/07/07 07:07:36;;;;;;;1.98;1.40;;;;;;;40.36;26.55;100083.13;4917137;28;101052;-86
2021/07/07 07:10:03;;;;;;;9.27;1.92;;;;;;;40.77;25.95;100081.75;4917025;28;98435;-85
2021/07/07 07:12:29;;;;;;;4.78;1.40;;;;;;;40.69;26.03;100082.19;4933124;28;97033;-82
2021/07/07 07:14:56;;;;;;;1.40;1.23;;;;;;;40.76;25.93;100088.34;4911412;28;96830;-81
2021/07/07 07:17:23;;;;;;;3.95;1.50;;;;;;;41.06;25.78;100085.13;4931486;28;98144;-83
2021/07/07 07:19:49;;;;;;;3.80;1.65;;;;;;;41.18;26.05;100096.81;4914686;28;101247;-83
2021/07/07 07:22:15;;;;;;;3.30;1.40;;;;;;;41.30;25.77;100079.31;4916675;28;96984;-84
2021/07/07 07:24:41;;;;;;;2.85;1.60;;;;;;;41.23;26.06;100093.28;4933279;28;97468;-88
2021/07/07 07:27:07;;;;;;;5.43;1.50;;;;;;;41.42;25.76;100077.19;4948546;28;98710;-83
2021/07/07 07:29:32;;;;;;;5.15;1.60;;;;;;;41.37;25.68;100094.53;4932158;28;101458;-83
2021/07/07 07:31:58;;;;;;;5.30;1.67;;;;;;;41.62;25.36;100088.41;4915828;28;97238;-82
2021/07/07 07:34:24;;;;;;;2.95;1.67;;;;;;;41.71;25.26;100079.69;4920475;28;97442;-82
2021/07/07 07:36:53;;;;;;;2.03;1.40;;;;;;;41.79;25.25;100079.19;4912622;28;101153;-82
2021/07/07 07:39:22;;;;;;;3.83;1.65;;;;;;;41.77;25.38;100076.69;4930351;28;97774;-83
2021/07/07 07:41:47;;;;;;;8.77;1.70;;;;;;;41.75;25.07;100080.81;4930517;28;96796;-82
2021/07/07 07:44:13;;;;;;;12.18;2.35;;;;;;;41.26;25.87;100076.25;4913294;28;96984;-83
2021/07/07 07:46:39;;;;;;;7.07;1.70;;;;;;;41.29;25.83;100061.13;4902991;28;101306;-82
2021/07/07 07:49:06;;;;;;;3.38;1.50;;;;;;;41.32;25.69;100068.88;4905070;28;101285;-82
2021/07/07 07:51:32;;;;;;;1.80;1.30;;;;;;;41.28;25.53;100063.06;4928759;28;96857;-82
2021/07/07 07:53:59;;;;;;;2.72;1.40;;;;;;;41.39;25.51;100072.22;4913539;28;97056;-82
2021/07/07 07:56:25;;;;;;;3.92;1.90;;;;;;;41.57;25.37;100068.28;4932429;28;98294;-83
2021/07/07 07:58:50;;;;;;;2.58;1.50;;;;;;;41.58;25.39;100075.47;4894890;28;100828;-82
2021/07/07 08:01:16;;;;;;;2.78;1.50;;;;;;;41.65;25.40;100073.28;4915535;28;97214;-82
2021/07/07 08:03:42;;;;;;;3.83;1.70;;;;;;;41.55;25.12;100064.97;4908113;28;97421;-82
2021/07/07 08:06:08;;;;;;;1.77;1.40;;;;;;;41.54;25.54;100069.66;4907090;28;98562;-82
2021/07/07 08:08:34;;;;;;;4.05;1.55;;;;;;;41.82;25.29;100073.97;4905198;28;98106;-82
2021/07/07 08:10:59;;;;;;;2.88;1.67;;;;;;;42.14;25.05;100059.31;4887733;28;97174;-85
2021/07/07 08:13:25;;;;;;;5.43;1.75;;;;;;;42.22;24.55;100067.09;4921881;28;96926;-84
2021/07/07 08:15:51;;;;;;;3.30;1.50;;;;;;;42.31;24.71;100067.44;4907905;28;101908;-85
2021/07/07 08:18:16;;;;;;;3.92;1.83;;;;;;;42.32;24.40;100060.81;4915908;28;101538;-83
2021/07/07 08:20:42;;;;;;;4.70;1.95;;;;;;;41.80;25.38;100047.78;4886688;28;97330;-84
2021/07/07 08:23:08;;;;;;;3.58;1.88;;;;;;;42.04;25.01;100048.25;4899304;28;100250;-85
2021/07/07 08:25:34;;;;;;;2.40;1.83;;;;;;;42.40;24.52;100038.25;4918238;28;98144;-86
2021/07/07 08:28:00;;;;;;;3.08;1.73;;;;;;;42.13;24.82;100045.81;4919774;28;98290;-86
2021/07/07 08:30:26;;;;;;;9.25;1.60;;;;;;;42.56;24.56;100044.66;4907174;28;98306;-75
2021/07/07 08:32:51;;;;;;;2.05;1.80;;;;;;;42.51;24.56;100023.41;4928803;28;96955;-76
2021/07/07 08:35:17;;;;;;;1.67;1.58;;;;;;;42.23;24.50;100029.31;4907786;28;101392;-89
2021/07/07 08:37:44;;;;;;;1.88;1.45;;;;;;;42.98;24.00;100027.13;4900616;28;101777;-89
2021/07/07 08:40:11;;;;;;;3.20;1.75;;;;;;;42.99;24.08;100034.28;4913505;28;96794;-87
2021/07/07 08:42:38;;;;;;;2.72;1.50;;;;;;;43.03;24.26;100032.66;4904588;28;96888;-88
2021/07/07 08:45:08;;;;;;;3.47;1.67;;;;;;;43.16;23.92;100039.59;4908469;28;101667;-88
2021/07/07 08:47:36;;;;;;;3.85;1.58;;;;;;;43.15;24.01;100035.19;4897331;28;101660;-89
2021/07/07 08:50:05;;;;;;;3.20;2.13;;;;;;;43.17;24.39;100044.84;4898059;28;97307;-89
2021/07/07 08:52:30;;;;;;;;;;;;;;;42.65;24.75;100047.72;4889295;28;97047;-88
2021/07/07 08:54:56;;;;;;;2.60;1.67;;;;;;;42.70;24.67;100050.47;4895941;28;101507;-88
2021/07/07 08:57:22;;;;;;;3.15;1.92;;;;;;;43.03;24.40;100038.19;4892660;28;101867;-89
2021/07/07 08:59:47;;;;;;;6.32;2.17;;;;;;;42.92;24.46;100037.34;4913809;28;96885;-89
2021/07/07 09:02:13;;;;;;;6.03;1.60;;;;;;;43.15;24.61;100060.03;4910467;28;97050;-89
2021/07/07 09:04:46;;;;;;;4.35;1.88;;;;;;;42.31;24.91;100058.31;4888257;28;102295;-89
2021/07/07 09:07:24;;;;;;;2.83;1.83;;;;;;;41.92;25.07;100042.97;4904893;28;101130;-89
2021/07/07 09:09:53;;;;;;;2.77;1.90;;;;;;;41.35;26.05;100058.16;4895657;28;96812;-88
2021/07/07 09:12:41;;;;;;;4.68;2.15;;;;;;;40.56;27.30;100066.91;4931575;28;97230;-88
2021/07/07 09:15:16;;;;;;;5.18;1.52;;;;;;;40.53;27.22;100072.09;4926498;28;101211;-88
2021/07/07 09:17:41;;;;;;;3.63;1.83;;;;;;;40.34;27.75;100077.06;4911746;28;98410;-88
2021/07/07 09:20:38;;;;;;;7.25;2.20;;;;;;;38.10;29.72;100067.13;4925556;28;97482;-83
2021/07/07 09:23:17;;;;;;;3.45;1.60;;;;;;;38.12;29.71;100069.63;4906111;28;96830;-86
2021/07/07 09:25:54;;;;;;;7.32;2.40;;;;;;;38.32;30.17;100080.22;4923300;28;102553;-87
2021/07/07 09:28:28;;;;;;;4.60;2.38;;;;;;;36.49;32.06;100078.69;4919328;28;97921;-86
2021/07/07 09:30:56;;;;;;;2.60;2.08;;;;;;;36.46;31.95;100059.19;4903758;28;96853;-86
2021/07/07 09:33:22;;;;;;;2.50;1.77;;;;;;;36.94;30.94;100048.28;4911349;28;96874;-88
2021/07/07 09:35:49;;;;;;;5.22;1.77;;;;;;;37.66;31.08;100071.25;4905371;28;100319;-84
2021/07/07 09:38:17;;;;;;;5.47;1.80;;;;;;;37.34;31.32;100072.34;4904769;28;98934;-87
2021/07/07 09:40:44;;;;;;;4.20;1.60;;;;;;;37.71;30.80;100076.84;4924528;28;96808;-86
2021/07/07 09:43:13;;;;;;;2.45;1.65;;;;;;;36.85;31.82;100076.16;4909691;28;97759;-87
2021/07/07 09:45:43;;;;;;;;;;;;;;;36.58;32.05;100092.91;4901455;28;98262;-87
2021/07/07 09:48:12;;;;;;;;;;;;;;;36.10;32.96;100103.69;4919581;28;97977;-87
2021/07/07 09:50:39;;;;;;;9.50;1.92;;;;;;;36.35;33.00;100109.94;4895221;28;96879;-88
2021/07/07 09:53:08;;;;;;;4.65;1.85;;;;;;;36.38;32.80;100105.94;4925204;28;97954;-86
2021/07/07 09:55:33;;;;;;;3.40;1.88;;;;;;;36.66;32.32;100094.50;4920475;28;101281;-87
2021/07/07 09:58:00;;;;;;;6.07;2.22;;;;;;;35.83;33.71;100102.00;4915232;28;100120;-87
2021/07/07 10:00:25;;;;;;;4.00;1.85;;;;;;;35.86;33.50;100119.00;4896454;28;97918;-85
2021/07/07 10:02:52;;;;;;;2.60;1.90;;;;;;;35.87;33.30;100104.28;4895877;28;97072;-82
2021/07/07 10:05:19;;;;;;;1.92;1.73;;;;;;;36.26;32.46;100114.88;4908222;28;98531;-82
2021/07/07 10:07:46;;;;;;;3.58;2.50;;;;;;;35.89;33.80;100115.81;4915134;28;98461;-86
2021/07/07 10:10:14;;;;;;;5.38;1.92;;;;;;;35.80;33.18;100098.88;4916269;28;96957;-86
2021/07/07 10:12:42;;;;;;;3.45;1.63;;;;;;;35.70;33.60;100131.31;4926906;28;96856;-86
2021/07/07 10:15:08;;;;;;;5.50;1.80;;;;;;;35.47;34.26;100107.31;4899961;28;101275;-85
2021/07/07 10:17:34;;;;;;;2.58;1.60;;;;;;;35.45;34.67;100123.06;4909884;28;97996;-82
2021/07/07 10:20:00;;;;;;;2.92;1.55;;;;;;;35.43;34.69;100122.44;4914878;28;97560;-83
2021/07/07 10:22:26;;;;;;;4.32;2.30;;;;;;;35.17;34.75;100116.09;4903383;28;98177;-90
2021/07/07 10:24:52;;;;;;;3.30;1.58;;;;;;;34.95;35.16;100123.72;4910734;28;97861;-83
2021/07/07 10:27:19;;;;;;;3.10;1.83;;;;;;;34.69;35.43;100109.13;4923204;28;98229;-83
2021/07/07 10:29:45;;;;;;;3.40;1.50;;;;;;;34.78;35.56;100126.09;4934700;28;97055;-83
2021/07/07 10:32:18;;;;;;;6.95;1.70;;;;;;;35.02;35.02;100110.03;4917825;28;96869;-82
2021/07/07 10:34:46;;;;;;;1.92;1.35;;;;;;;34.96;35.38;100133.56;4883582;28;101718;-83
2021/07/07 10:37:12;;;;;;;2.15;1.45;;;;;;;34.71;35.83;100111.66;4922730;28;101770;-83
2021/07/07 10:39:38;;;;;;;4.38;1.75;;;;;;;34.70;35.23;100124.44;4929297;28;96983;-81
2021/07/07 10:42:05;;;;;;;2.05;1.55;;;;;;;34.90;35.63;100132.53;4913315;28;97169;-83
2021/07/07 10:44:38;;;;;;;1.58;1.45;;;;;;;34.80;36.03;100139.50;4897564;28;101017;-83
2021/07/07 10:47:15;;;;;;;2.63;1.60;;;;;;;34.74;35.53;100135.75;4912562;28;101571;-83
2021/07/07 10:49:59;;;;;;;4.88;1.52;;;;;;;34.86;35.47;100141.38;4913790;28;96944;-82
2021/07/07 10:52:30;;;;;;;3.53;1.70;;;;;;;35.01;34.86;100152.84;4896631;28;96992;-83
2021/07/07 10:54:58;;;;;;;7.40;1.88;;;;;;;35.06;35.23;100157.69;4925391;28;98353;-83
2021/07/07 10:57:26;;;;;;;6.68;1.30;;;;;;;34.92;35.50;100152.25;4913655;28;98088;-83
2021/07/07 10:59:54;;;;;;;4.90;1.80;;;;;;;34.78;35.66;100152.50;4921022;28;96728;-80
2021/07/07 11:02:25;;;;;;;10.65;1.65;;;;;;;34.63;35.83;100159.03;4930544;28;97085;-83
2021/07/07 11:04:58;;;;;;;5.88;1.42;;;;;;;34.21;36.57;100149.44;4888119;28;101559;-82
2021/07/07 11:07:44;;;;;;;8.98;1.70;;;;;;;34.06;37.22;100165.16;4902088;28;98193;-80
2021/07/07 11:10:17;;;;;;;4.25;1.90;;;;;;;33.84;37.33;100159.91;4898411;28;97210;-80
2021/07/07 11:12:42;;;;;;;4.80;1.20;;;;;;;33.56;37.39;100176.38;4898724;28;97413;-84
2021/07/07 11:15:08;;;;;;;2.63;1.52;;;;;;;33.23;38.18;100177.09;4922054;28;101871;-84
2021/07/07 11:17:43;;;;;;;5.63;1.75;;;;;;;32.87;38.30;100183.63;4928901;28;101318;-84
2021/07/07 11:20:11;;;;;;;7.63;1.50;;;;;;;32.62;38.38;100175.09;4903293;28;96859;-84
2021/07/07 11:22:39;;;;;;;7.53;1.42;;;;;;;32.18;39.03;100188.97;4911047;28;97359;-84